Zanesville, OH

1:17 AM EST on December 09, 2016 (GMT -0500)
Zanesville Municipal | | Change Station

Elev 899 ft 39.94 °N, 81.89 °W | Updated 24 minutes ago

Overcast
Overcast
23 °F
Feels Like 13 °F
N
9
Wind Variable Wind from West

Today
High -- | Low -- °F
--% Chance of Precip.
Yesterday
High -- | Low -- °F
Precip. -- in
Pressure 30.38 in
Visibility 5.0 miles
Clouds Few 3000 ft
Overcast 5000 ft
Windchill 13 °F
Dew Point 15 °F
Humidity 72%
Rainfall 0.00 in
Snow Depth Not available.
7:38 AM 5:02 PM
Waxing Gibbous, 71% visible
METAR KZZV 090553Z AUTO 27008KT 5SM -SN FEW030 OVC050 M05/M09 A3034 RMK AO2 SNB0456E06B37 SLP287 P0000 60000 T10501094 11039 21050 51010
Pressure 30.38 in
Visibility 5.0 miles
Clouds Few 3000 ft
Overcast 5000 ft
Windchill 13 °F
Dew Point 15 °F
Humidity 72%
Rainfall 0.00 in
Snow Depth Not available.
7:38 AM 5:02 PM
Waxing Gibbous, 71% visible
METAR KZZV 090553Z AUTO 27008KT 5SM -SN FEW030 OVC050 M05/M09 A3034 RMK AO2 SNB0456E06B37 SLP287 P0000 60000 T10501094 11039 21050 51010

10-Day Weather Forecast

Almanac

Astronomy

Dec. 09, 2016 Rise Set
Actual Time
Civil Twilight
Nautical Twilight
Astronomical Twilight
Moon
Length of Visible Light
Length of Day
Tomorrow will be .
, % of the Moon is Illuminated

Today's Extremes

State Highs State Lows

Community

WunderPhotos

Upload Photos

1,956,374 photos uploaded!

WunderBlog® & News

Nearby

Air Quality

  Air Quality AQ Index Pollutant
Not available.

Snow Depth

Station Depth Elevation

Earthquake Activity

City Distance Mag. Time & Date
Minimum magnitude displayed is 2.5.

Coastal Water Temperatures

Place Temperature

Stations

Nearby Weather Stations

Station Location Temp. Windchill Dew Point Humidity Wind Precip. Elev Updated Type
                   

Watches & Warnings

There are currently no watches in effect.